Time;durP1;ratioP1;P1;durP2;ratioP2;P2;SDS_P1;SDS_P2;PMS_P1;PMS_P2;Temp;Humidity;BMP_temperature;BMP_pressure;BME280_temperature;BME280_humidity;BME280_pressure;Samples;Min_cycle;Max_cycle;Signal;HPM_P1;HPM_P2
2021/12/12 00:01:12;;;;;;;11.50;3.40;;;4.30;99.90;;;;;;5037587;28;20064;-57
2021/12/12 00:03:46;;;;;;;10.73;4.45;;;4.30;99.90;;;;;;5037272;28;20120;-62
2021/12/12 00:06:28;;;;;;;12.80;4.68;;;4.30;99.90;;;;;;5037895;28;20030;-60
2021/12/12 00:08:58;;;;;;;10.93;3.67;;;4.10;99.90;;;;;;5037955;28;20063;-63
2021/12/12 00:11:28;;;;;;;9.48;4.15;;;4.20;99.90;;;;;;5035704;28;20029;-61
2021/12/12 00:14:04;;;;;;;6.30;3.30;;;4.10;99.90;;;;;;5037780;28;20077;-61
2021/12/12 00:16:30;;;;;;;9.07;3.15;;;4.00;99.90;;;;;;5035731;28;20025;-54
2021/12/12 00:18:56;;;;;;;8.95;3.95;;;4.00;99.90;;;;;;5038036;28;20045;-58
2021/12/12 00:21:26;;;;;;;7.25;3.35;;;4.10;99.90;;;;;;5035655;28;20035;-61
2021/12/12 00:23:53;;;;;;;7.78;3.22;;;4.20;99.90;;;;;;5036021;28;20034;-61
2021/12/12 00:26:18;;;;;;;12.13;3.58;;;4.10;99.90;;;;;;5035592;28;20374;-64
2021/12/12 00:28:45;;;;;;;17.52;5.03;;;4.00;99.90;;;;;;5036485;28;20029;-63
2021/12/12 00:31:16;;;;;;;9.18;3.55;;;4.00;99.90;;;;;;5037653;28;20037;-61
2021/12/12 00:33:47;;;;;;;6.68;3.03;;;4.10;99.90;;;;;;5037389;28;20451;-60
2021/12/12 00:36:17;;;;;;;9.40;3.85;;;4.00;99.90;;;;;;5037669;28;20075;-55
2021/12/12 00:38:48;;;;;;;14.07;3.38;;;4.10;99.90;;;;;;5032862;28;20060;-60
2021/12/12 00:41:19;;;;;;;6.20;3.70;;;4.00;99.90;;;;;;5034461;28;20374;-63
2021/12/12 00:43:50;;;;;;;7.95;3.67;;;4.00;99.90;;;;;;5034190;28;20040;-65
2021/12/12 00:46:18;;;;;;;8.38;3.53;;;3.90;99.90;;;;;;5034463;28;20033;-56
2021/12/12 00:48:45;;;;;;;10.75;3.60;;;3.90;99.90;;;;;;5034412;28;20035;-58
2021/12/12 00:51:14;;;;;;;10.80;4.72;;;4.00;99.90;;;;;;5033846;28;20515;-65
2021/12/12 00:53:42;;;;;;;9.20;4.00;;;3.90;99.90;;;;;;5033851;28;20040;-58
2021/12/12 00:56:08;;;;;;;6.78;3.47;;;3.80;99.90;;;;;;5033975;28;20036;-56
2021/12/12 00:58:34;;;;;;;7.43;4.18;;;3.90;99.90;;;;;;5032280;28;20037;-60
2021/12/12 01:01:06;;;;;;;8.38;3.45;;;4.00;99.90;;;;;;5034011;28;20467;-63
2021/12/12 01:03:38;;;;;;;13.13;4.40;;;3.90;99.90;;;;;;5032198;28;20095;-59
2021/12/12 01:06:07;;;;;;;6.95;2.80;;;4.00;99.90;;;;;;5034163;28;20049;-58
2021/12/12 01:08:33;;;;;;;7.10;3.70;;;3.90;99.90;;;;;;5033260;28;20079;-61
2021/12/12 01:11:15;;;;;;;11.60;3.80;;;3.90;99.90;;;;;;5033446;28;20025;-61
2021/12/12 01:13:43;;;;;;;7.38;3.40;;;3.90;99.90;;;;;;5033545;28;20550;-59
2021/12/12 01:16:14;;;;;;;14.75;3.42;;;3.70;99.90;;;;;;5033591;28;20056;-59
2021/12/12 01:18:48;;;;;;;12.20;4.30;;;3.80;99.90;;;;;;5033079;28;20049;-56
2021/12/12 01:21:23;;;;;;;7.18;4.03;;;3.70;99.90;;;;;;5033768;28;20034;-66
2021/12/12 01:24:12;;;;;;;10.63;4.80;;;3.70;99.90;;;;;;5033408;28;20030;-62
2021/12/12 01:26:39;;;;;;;10.23;3.75;;;3.80;99.90;;;;;;5033177;28;20025;-61
2021/12/12 01:29:09;;;;;;;8.50;3.80;;;3.80;99.90;;;;;;5033237;28;20469;-65
2021/12/12 01:31:39;;;;;;;9.73;3.88;;;3.80;99.90;;;;;;5033230;28;20539;-57
2021/12/12 01:34:11;;;;;;;6.93;3.75;;;3.80;99.90;;;;;;5033638;28;20025;-61
2021/12/12 01:39:41;;;;;;;17.00;4.33;;;3.70;99.90;;;;;;5032820;28;20033;-64
2021/12/12 01:42:20;;;;;;;8.07;4.78;;;3.70;99.90;;;;;;5033039;28;20167;-61
2021/12/12 01:44:55;;;;;;;10.25;4.10;;;3.70;99.90;;;;;;5032774;28;20454;-55
2021/12/12 01:47:23;;;;;;;14.88;4.55;;;3.70;99.90;;;;;;5031368;28;20037;-74
2021/12/12 01:49:53;;;;;;;8.50;4.20;;;3.80;99.90;;;;;;5031659;28;20033;-60
2021/12/12 01:52:23;;;;;;;8.85;4.72;;;3.80;99.90;;;;;;5030795;28;20026;-63
2021/12/12 01:54:57;;;;;;;8.45;5.10;;;3.60;99.90;;;;;;5031859;28;20193;-58
2021/12/12 01:57:30;;;;;;;16.33;4.53;;;3.60;99.90;;;;;;5031156;28;20029;-65
2021/12/12 01:59:58;;;;;;;10.85;5.50;;;3.40;99.90;;;;;;5031722;28;20072;-59
2021/12/12 02:02:33;;;;;;;12.07;5.30;;;3.40;99.90;;;;;;5032381;28;20048;-56
2021/12/12 02:05:04;;;;;;;13.32;5.07;;;3.40;99.90;;;;;;5033077;28;20451;-62
2021/12/12 02:07:34;;;;;;;9.45;5.10;;;3.50;99.90;;;;;;5032205;28;20025;-64
2021/12/12 02:10:03;;;;;;;13.05;5.10;;;3.50;99.90;;;;;;5032778;28;20038;-55
2021/12/12 02:12:29;;;;;;;14.65;5.28;;;3.50;99.90;;;;;;5030870;28;20088;-59
2021/12/12 02:14:57;;;;;;;10.88;5.82;;;3.40;99.90;;;;;;5031477;28;20463;-62
2021/12/12 02:17:33;;;;;;;8.27;5.40;;;3.40;99.90;;;;;;5032459;28;20466;-72
2021/12/12 02:20:11;;;;;;;12.40;4.90;;;3.30;99.90;;;;;;5030760;28;20106;-56
2021/12/12 02:23:07;;;;;;;17.55;6.63;;;3.30;99.90;;;;;;5032067;28;20117;-61
2021/12/12 02:36:42;;;;;;;13.35;6.38;;;3.20;99.90;;;;;;5031488;28;20033;-59
2021/12/12 02:39:15;;;;;;;9.73;5.93;;;3.10;99.90;;;;;;5032105;28;20026;-63
2021/12/12 02:41:46;;;;;;;9.95;6.47;;;3.00;99.90;;;;;;5031755;28;20026;-66
2021/12/12 02:44:14;;;;;;;17.93;6.30;;;3.00;99.90;;;;;;5030789;28;20574;-59
2021/12/12 02:46:42;;;;;;;13.02;7.07;;;2.90;99.90;;;;;;5031600;28;20296;-61
2021/12/12 02:49:24;;;;;;;13.77;6.53;;;2.80;99.90;;;;;;5032081;28;20026;-63
2021/12/12 02:51:51;;;;;;;16.88;8.38;;;2.80;99.90;;;;;;5031750;28;20048;-60
2021/12/12 02:54:17;;;;;;;14.00;6.18;;;3.10;99.90;;;;;;5031045;28;20048;-62
2021/12/12 02:56:46;;;;;;;14.95;5.72;;;3.10;99.90;;;;;;5031175;28;20025;-58
2021/12/12 02:59:17;;;;;;;12.30;6.13;;;3.00;99.90;;;;;;5030526;28;20391;-54
2021/12/12 03:01:44;;;;;;;14.13;6.10;;;3.20;99.90;;;;;;5029832;28;20091;-63
2021/12/12 03:04:10;;;;;;;12.45;7.18;;;3.10;99.90;;;;;;5031456;28;20780;-59
2021/12/12 03:06:40;;;;;;;12.18;6.45;;;3.10;99.90;;;;;;5031288;28;20116;-59
2021/12/12 03:09:14;;;;;;;13.15;6.60;;;3.00;99.90;;;;;;5031967;28;20101;-59
2021/12/12 03:11:42;;;;;;;21.85;6.68;;;3.20;99.90;;;;;;5031382;28;20511;-62
2021/12/12 03:14:08;;;;;;;14.48;6.90;;;3.20;99.90;;;;;;5031553;28;20537;-61
2021/12/12 03:16:35;;;;;;;18.15;8.27;;;3.30;99.90;;;;;;5031123;28;20033;-61
2021/12/12 03:19:00;;;;;;;10.57;6.20;;;3.30;99.90;;;;;;5031587;28;20138;-57
2021/12/12 03:21:32;;;;;;;15.23;6.32;;;3.30;99.90;;;;;;5031551;28;20025;-72
2021/12/12 03:24:08;;;;;;;12.80;6.07;;;3.40;99.90;;;;;;5030171;28;20486;-64
2021/12/12 03:26:36;;;;;;;15.43;7.90;;;3.20;99.90;;;;;;5030916;28;20484;-57
2021/12/12 03:29:03;;;;;;;23.05;7.90;;;3.10;99.90;;;;;;5031533;28;20452;-58
2021/12/12 03:31:36;;;;;;;14.20;6.60;;;3.10;99.90;;;;;;5030651;28;20486;-64
2021/12/12 03:34:16;;;;;;;14.10;6.68;;;3.20;99.90;;;;;;5031621;28;20032;-56
2021/12/12 03:36:43;;;;;;;17.23;6.75;;;3.20;99.90;;;;;;5030941;28;20033;-62
2021/12/12 03:39:13;;;;;;;14.90;7.70;;;3.10;99.90;;;;;;5031480;28;20034;-57
2021/12/12 03:41:40;;;;;;;12.85;6.38;;;3.20;99.90;;;;;;5030494;28;20386;-57
2021/12/12 03:44:09;;;;;;;15.85;6.68;;;3.30;99.90;;;;;;5031176;28;20033;-55
2021/12/12 03:46:37;;;;;;;15.73;6.90;;;3.10;99.90;;;;;;5030649;28;20029;-54
2021/12/12 03:49:06;;;;;;;21.65;7.90;;;3.10;99.90;;;;;;5030853;28;20030;-62
2021/12/12 03:51:33;;;;;;;14.73;6.28;;;3.10;99.90;;;;;;5030579;28;20117;-59
2021/12/12 03:54:00;;;;;;;9.48;6.05;;;3.10;99.90;;;;;;5031047;28;20033;-55
2021/12/12 03:56:27;;;;;;;9.93;6.70;;;3.10;99.90;;;;;;5029965;28;20031;-57
2021/12/12 03:58:54;;;;;;;14.63;6.88;;;3.00;99.90;;;;;;5030269;28;20542;-55
2021/12/12 04:01:26;;;;;;;13.82;6.50;;;3.10;99.90;;;;;;5029791;28;20043;-54
2021/12/12 04:03:54;;;;;;;19.10;7.07;;;3.10;99.90;;;;;;5030407;28;20401;-58
2021/12/12 04:06:23;;;;;;;12.90;5.95;;;3.10;99.90;;;;;;5031130;28;20033;-58
2021/12/12 04:08:51;;;;;;;15.65;7.10;;;3.00;99.90;;;;;;5030646;28;20033;-59
2021/12/12 04:11:27;;;;;;;18.92;7.75;;;2.90;99.90;;;;;;5031116;28;20033;-64
2021/12/12 04:13:55;;;;;;;20.08;7.45;;;2.90;99.90;;;;;;5032800;28;20079;-61
2021/12/12 04:16:28;;;;;;;13.07;7.15;;;3.00;99.90;;;;;;5034568;28;20026;-65
2021/12/12 04:18:54;;;;;;;13.25;6.60;;;3.10;99.90;;;;;;5033895;28;20078;-58
2021/12/12 04:21:21;;;;;;;10.50;6.05;;;3.10;99.90;;;;;;5034758;28;20026;-62
2021/12/12 04:23:48;;;;;;;12.52;5.93;;;3.20;99.90;;;;;;5033851;28;20177;-54
2021/12/12 04:26:20;;;;;;;18.92;7.30;;;3.20;99.90;;;;;;5033341;28;20038;-57
2021/12/12 04:28:59;;;;;;;10.68;6.30;;;3.10;99.90;;;;;;5033970;28;20108;-59
2021/12/12 04:31:25;;;;;;;11.02;5.88;;;3.00;99.90;;;;;;5034972;28;20108;-64
2021/12/12 04:33:52;;;;;;;15.40;6.97;;;3.00;99.90;;;;;;5033954;28;20033;-55
2021/12/12 04:36:34;;;;;;;11.05;5.88;;;3.10;99.90;;;;;;5033152;28;20048;-65
2021/12/12 04:39:07;;;;;;;13.68;6.00;;;3.20;99.90;;;;;;5034542;28;20030;-61
2021/12/12 04:41:33;;;;;;;11.55;6.22;;;3.00;99.90;;;;;;5033860;28;20037;-63
2021/12/12 04:43:58;;;;;;;12.65;5.68;;;3.10;99.90;;;;;;5033977;28;20080;-67
2021/12/12 04:46:37;;;;;;;16.52;6.40;;;3.20;99.90;;;;;;5034556;28;20029;-65
2021/12/12 04:51:57;;;;;;;10.15;5.03;;;3.40;99.90;;;;;;5033352;28;20068;-61
2021/12/12 04:54:32;;;;;;;14.75;6.25;;;3.50;99.90;;;;;;5033013;28;20465;-58
2021/12/12 04:57:10;;;;;;;13.88;5.18;;;3.50;99.90;;;;;;5034174;28;20033;-58
2021/12/12 04:59:42;;;;;;;10.10;4.68;;;3.40;99.90;;;;;;5033520;28;20075;-62
2021/12/12 05:02:13;;;;;;;;;;;3.50;99.90;;;;;;5034540;28;20033;-58
2021/12/12 05:05:05;;;;;;;11.48;4.95;;;3.50;99.90;;;;;;5033311;28;19952;-60
2021/12/12 05:07:36;;;;;;;12.70;5.45;;;3.50;99.90;;;;;;5033819;28;20049;-59
2021/12/12 05:10:11;;;;;;;9.27;4.82;;;3.30;99.90;;;;;;5033761;28;20022;-62
2021/12/12 05:12:55;;;;;;;14.80;5.03;;;3.30;99.90;;;;;;5032088;28;20029;-58
2021/12/12 05:15:24;;;;;;;10.52;4.72;;;3.40;99.90;;;;;;5033877;28;20045;-61
2021/12/12 05:18:00;;;;;;;14.50;5.25;;;3.30;99.90;;;;;;5033095;28;20169;-64
2021/12/12 05:20:30;;;;;;;10.48;4.65;;;3.40;99.90;;;;;;5033517;28;20108;-57
2021/12/12 05:23:00;;;;;;;12.98;5.10;;;3.30;99.90;;;;;;5033211;28;20025;-59
2021/12/12 05:25:35;;;;;;;13.65;4.63;;;3.30;99.90;;;;;;5032992;28;20478;-57
2021/12/12 05:28:02;;;;;;;14.48;4.63;;;3.40;99.90;;;;;;5048306;28;20026;-59
2021/12/12 05:30:31;;;;;;;9.52;3.95;;;3.40;99.90;;;;;;5033557;28;20423;-59
2021/12/12 05:32:57;;;;;;;13.98;4.85;;;3.50;99.90;;;;;;5032930;28;20030;-57
2021/12/12 05:35:27;;;;;;;8.77;4.53;;;3.60;99.90;;;;;;5033543;28;20029;-59
2021/12/12 05:37:55;;;;;;;9.95;4.43;;;3.50;99.90;;;;;;5033135;28;20029;-59
2021/12/12 05:40:31;;;;;;;7.13;3.92;;;3.40;99.90;;;;;;5032005;28;20382;-60
2021/12/12 05:42:59;;;;;;;11.88;4.50;;;3.50;99.90;;;;;;5033057;28;20108;-55
2021/12/12 05:45:30;;;;;;;9.43;5.15;;;3.60;99.90;;;;;;5033339;28;20064;-61
2021/12/12 05:47:56;;;;;;;11.45;5.22;;;3.60;99.90;;;;;;5032691;28;20213;-61
2021/12/12 05:50:24;;;;;;;13.75;5.25;;;3.60;99.90;;;;;;5032830;28;20030;-62
2021/12/12 05:52:54;;;;;;;11.23;5.47;;;3.60;99.90;;;;;;5032403;28;20028;-60
2021/12/12 05:55:22;;;;;;;13.98;4.90;;;3.70;99.90;;;;;;5033119;28;20033;-60
2021/12/12 05:57:53;;;;;;;8.60;4.45;;;3.70;99.90;;;;;;5032358;28;20045;-60
2021/12/12 06:00:21;;;;;;;7.97;4.70;;;3.60;99.90;;;;;;5033269;28;20087;-60
2021/12/12 06:02:48;;;;;;;7.68;4.07;;;3.60;99.90;;;;;;5031163;28;20164;-60
2021/12/12 06:05:14;;;;;;;11.05;4.15;;;3.50;99.90;;;;;;5032912;28;20099;-61
2021/12/12 06:07:41;;;;;;;8.55;4.65;;;3.60;99.90;;;;;;5030913;28;20480;-61
2021/12/12 06:10:11;;;;;;;9.95;4.57;;;3.60;99.90;;;;;;5033098;28;20021;-60
2021/12/12 06:12:39;;;;;;;10.80;3.85;;;3.60;99.90;;;;;;5031494;28;20431;-74
2021/12/12 06:15:08;;;;;;;9.52;3.97;;;3.60;99.90;;;;;;5031389;28;20041;-60
2021/12/12 06:17:35;;;;;;;8.90;4.32;;;3.50;99.90;;;;;;5031248;28;20131;-61
2021/12/12 06:20:03;;;;;;;10.75;5.07;;;3.50;99.90;;;;;;5031826;28;20048;-62
2021/12/12 06:22:29;;;;;;;11.60;4.75;;;3.60;99.90;;;;;;5032659;28;20061;-59
2021/12/12 06:24:55;;;;;;;9.65;4.45;;;3.60;99.90;;;;;;5031701;28;20041;-60
2021/12/12 06:27:21;;;;;;;9.55;4.72;;;3.60;99.90;;;;;;5031386;28;20033;-63
2021/12/12 06:29:50;;;;;;;9.00;3.80;;;3.60;99.90;;;;;;5030233;28;20394;-58
2021/12/12 06:32:17;;;;;;;11.82;4.32;;;3.60;99.90;;;;;;5032118;28;20025;-63
2021/12/12 06:34:43;;;;;;;11.77;4.18;;;3.70;99.90;;;;;;5031677;28;20041;-60
2021/12/12 06:37:10;;;;;;;11.43;4.50;;;3.70;99.90;;;;;;5031341;28;20022;-56
2021/12/12 06:39:37;;;;;;;9.50;4.25;;;3.70;99.90;;;;;;5030932;28;20048;-57
2021/12/12 06:42:05;;;;;;;11.32;4.43;;;3.50;99.90;;;;;;5031716;28;20030;-57
2021/12/12 06:44:31;;;;;;;11.27;4.72;;;3.50;99.90;;;;;;5031822;28;20036;-61
2021/12/12 06:46:59;;;;;;;10.95;4.40;;;3.60;99.90;;;;;;5031702;28;20037;-56
2021/12/12 06:49:25;;;;;;;12.57;5.25;;;3.60;99.90;;;;;;5032157;28;20017;-61
2021/12/12 06:51:55;;;;;;;8.98;4.90;;;3.50;99.90;;;;;;5031234;28;20356;-58
2021/12/12 06:54:27;;;;;;;7.97;4.35;;;3.50;99.90;;;;;;5032032;28;20147;-63
2021/12/12 06:56:54;;;;;;;;;;;3.60;99.90;;;;;;5030575;28;20033;-62
2021/12/12 06:59:22;;;;;;;6.65;4.00;;;3.40;99.90;;;;;;5032069;28;19955;-63
2021/12/12 07:01:49;;;;;;;10.07;4.55;;;3.40;99.90;;;;;;5029747;28;20025;-55
2021/12/12 07:04:18;;;;;;;8.38;4.18;;;3.50;99.90;;;;;;5030483;28;20033;-58
2021/12/12 07:06:48;;;;;;;12.30;4.20;;;3.50;99.90;;;;;;5031334;28;20026;-61
2021/12/12 07:09:15;;;;;;;14.57;4.80;;;3.50;99.90;;;;;;5031834;28;20032;-54
2021/12/12 07:11:42;;;;;;;8.07;4.90;;;3.60;99.90;;;;;;5030947;28;20112;-65
2021/12/12 07:14:11;;;;;;;10.95;5.28;;;3.50;99.90;;;;;;5030440;28;20026;-59
2021/12/12 07:16:37;;;;;;;7.32;4.13;;;3.70;99.90;;;;;;5031653;28;20032;-59
2021/12/12 07:19:05;;;;;;;9.98;4.50;;;3.70;99.90;;;;;;5030930;28;20052;-56
2021/12/12 07:21:31;;;;;;;10.95;4.28;;;3.80;99.90;;;;;;5030126;28;20396;-58
2021/12/12 07:24:00;;;;;;;11.05;4.85;;;3.70;99.90;;;;;;5030690;28;20033;-59
2021/12/12 07:26:27;;;;;;;6.47;4.45;;;3.70;99.90;;;;;;5031838;28;20033;-61
2021/12/12 07:28:55;;;;;;;9.45;4.30;;;3.70;99.90;;;;;;5029448;28;20076;-62
2021/12/12 07:31:24;;;;;;;9.63;4.50;;;3.80;99.90;;;;;;5031399;28;20056;-58
2021/12/12 07:33:56;;;;;;;9.25;4.25;;;3.90;99.90;;;;;;5029446;28;20029;-58
2021/12/12 07:36:23;;;;;;;8.95;5.07;;;3.70;99.90;;;;;;5031448;28;20030;-65
2021/12/12 07:38:56;;;;;;;8.80;4.70;;;3.80;99.90;;;;;;5028180;28;20063;-59
2021/12/12 07:41:24;;;;;;;9.18;4.25;;;3.80;99.90;;;;;;5029132;28;20042;-60
2021/12/12 07:43:50;;;;;;;15.80;5.35;;;3.70;99.90;;;;;;5028178;28;20077;-60
2021/12/12 07:46:18;;;;;;;14.82;4.75;;;3.70;99.90;;;;;;5028866;28;20064;-59
2021/12/12 07:48:45;;;;;;;8.75;5.05;;;3.80;99.90;;;;;;5015839;28;20038;-66
2021/12/12 07:51:12;;;;;;;9.15;4.95;;;3.80;99.90;;;;;;5032923;28;20072;-60
2021/12/12 07:53:38;;;;;;;9.93;4.85;;;3.80;99.90;;;;;;5032773;28;20414;-59
2021/12/12 07:56:04;;;;;;;12.38;6.60;;;3.80;99.90;;;;;;5032360;28;20033;-60
2021/12/12 07:58:30;;;;;;;9.73;4.35;;;3.70;99.90;;;;;;5016552;28;20485;-65
2021/12/12 08:00:58;;;;;;;7.93;4.82;;;3.80;99.90;;;;;;5032033;28;20109;-55
2021/12/12 08:03:29;;;;;;;9.85;5.32;;;3.80;99.90;;;;;;5032461;28;20455;-61
2021/12/12 08:05:56;;;;;;;9.70;4.18;;;3.90;99.90;;;;;;5032027;28;20091;-59
2021/12/12 08:08:24;;;;;;;12.32;5.70;;;3.90;99.90;;;;;;5032555;28;20033;-59
2021/12/12 08:10:50;;;;;;;11.15;5.47;;;4.00;99.90;;;;;;5033912;28;20041;-61
2021/12/12 08:13:17;;;;;;;7.10;4.65;;;3.90;99.90;;;;;;5034964;28;20104;-54
2021/12/12 08:15:44;;;;;;;9.13;5.68;;;4.00;99.90;;;;;;5033780;28;20033;-60
2021/12/12 08:18:12;;;;;;;8.57;5.15;;;4.00;99.90;;;;;;5033022;28;20048;-61
2021/12/12 08:20:39;;;;;;;7.35;4.60;;;4.00;99.90;;;;;;5033553;28;20124;-60
2021/12/12 08:23:07;;;;;;;9.80;4.85;;;4.00;99.90;;;;;;5034091;28;20029;-64
2021/12/12 08:25:34;;;;;;;10.63;4.90;;;4.00;99.90;;;;;;5034377;28;20490;-60
2021/12/12 08:28:01;;;;;;;9.95;5.90;;;4.00;99.90;;;;;;5034148;28;20533;-60
2021/12/12 08:30:28;;;;;;;11.13;6.18;;;4.00;99.90;;;;;;5033279;28;20033;-55
2021/12/12 08:32:53;;;;;;;12.80;4.82;;;4.00;99.90;;;;;;5033776;28;20160;-60
2021/12/12 08:35:22;;;;;;;9.85;5.13;;;4.10;99.90;;;;;;5034510;28;20116;-59
2021/12/12 08:37:49;;;;;;;8.95;4.93;;;4.10;99.90;;;;;;5033544;28;20035;-61
2021/12/12 08:40:20;;;;;;;32.75;6.80;;;4.20;99.90;;;;;;5032662;28;20041;-62
2021/12/12 08:42:48;;;;;;;9.98;4.45;;;4.10;99.90;;;;;;5033852;28;20032;-75
2021/12/12 08:45:17;;;;;;;11.00;5.60;;;4.00;99.90;;;;;;5032808;28;20114;-60
2021/12/12 08:47:43;;;;;;;9.32;5.00;;;4.10;99.90;;;;;;5034194;28;20449;-55
2021/12/12 08:50:13;;;;;;;11.18;5.47;;;4.10;99.90;;;;;;5033777;28;20467;-60
2021/12/12 08:52:41;;;;;;;10.52;4.85;;;4.20;99.90;;;;;;5034141;28;20036;-59
2021/12/12 08:55:15;;;;;;;10.23;4.97;;;4.30;99.90;;;;;;5033249;28;20117;-59
2021/12/12 08:58:14;;;;;;;11.05;5.80;;;4.30;99.90;;;;;;5033618;28;20097;-60
2021/12/12 09:00:49;;;;;;;11.95;5.82;;;4.30;99.90;;;;;;5044632;28;20029;-55
2021/12/12 09:03:26;;;;;;;13.30;5.50;;;4.30;99.90;;;;;;5033022;28;20064;-63
2021/12/12 09:05:53;;;;;;;9.57;6.15;;;4.30;99.90;;;;;;5032914;28;20558;-56
2021/12/12 09:08:28;;;;;;;8.90;5.95;;;4.30;99.90;;;;;;5032647;28;20043;-64
2021/12/12 09:11:25;;;;;;;13.98;5.85;;;4.30;99.90;;;;;;5033292;28;20025;-60
2021/12/12 09:13:59;;;;;;;8.52;5.65;;;4.20;99.90;;;;;;5032968;28;20025;-59
2021/12/12 09:16:34;;;;;;;11.30;5.43;;;4.30;99.90;;;;;;5033776;28;20063;-64
2021/12/12 09:19:11;;;;;;;12.95;6.30;;;4.30;99.90;;;;;;5033164;28;20095;-59
2021/12/12 09:21:51;;;;;;;18.58;6.38;;;4.30;99.90;;;;;;5033770;28;20040;-62
2021/12/12 09:24:45;;;;;;;12.07;5.80;;;4.40;99.90;;;;;;5033937;28;20025;-62
2021/12/12 09:27:17;;;;;;;12.50;5.10;;;4.30;99.90;;;;;;5033162;28;20029;-60
2021/12/12 09:29:57;;;;;;;12.73;5.97;;;4.30;99.90;;;;;;5032425;28;20034;-60
2021/12/12 09:32:33;;;;;;;10.05;5.80;;;4.30;99.90;;;;;;5034028;28;20033;-59
2021/12/12 09:35:14;;;;;;;8.88;5.70;;;4.40;99.90;;;;;;5032458;28;20083;-61
2021/12/12 09:37:45;;;;;;;11.50;5.70;;;4.30;99.90;;;;;;5032037;28;20026;-60
2021/12/12 09:40:42;;;;;;;11.45;6.60;;;4.30;99.90;;;;;;5032767;28;20108;-61
2021/12/12 09:43:49;;;;;;;13.05;6.07;;;4.30;99.90;;;;;;5026183;28;20034;-60
2021/12/12 09:46:57;;;;;;;12.48;6.15;;;4.40;99.90;;;;;;5029311;28;20044;-61
2021/12/12 09:52:48;;;;;;;11.63;5.30;;;4.30;99.90;;;;;;4998273;28;20042;-73
2021/12/12 09:55:47;;;;;;;10.32;6.25;;;6.20;99.90;;;;;;5010875;28;20029;-58
2021/12/12 09:58:23;;;;;;;10.82;5.90;;;7.00;99.90;;;;;;5006890;28;20045;-59
2021/12/12 10:00:58;;;;;;;12.55;6.95;;;5.30;99.90;;;;;;5012953;28;20041;-63
2021/12/12 10:03:45;;;;;;;12.95;7.07;;;5.00;99.90;;;;;;5013169;28;20037;-65
2021/12/12 10:06:33;;;;;;;12.93;7.18;;;4.70;99.90;;;;;;5022659;28;20349;-60
2021/12/12 10:09:10;;;;;;;12.98;6.57;;;4.50;99.90;;;;;;5031848;28;20393;-62
2021/12/12 10:11:41;;;;;;;16.17;8.13;;;4.60;99.90;;;;;;5031443;28;20428;-61
2021/12/12 10:14:37;;;;;;;16.97;6.87;;;4.50;99.90;;;;;;5030484;28;20486;-61
2021/12/12 10:17:40;;;;;;;12.75;6.75;;;4.40;99.90;;;;;;5031768;28;20026;-61
2021/12/12 10:20:37;;;;;;;14.65;6.97;;;4.40;99.90;;;;;;5031217;28;20128;-62
2021/12/12 10:23:19;;;;;;;13.50;7.22;;;4.40;99.90;;;;;;5020254;28;20128;-68
2021/12/12 10:25:45;;;;;;;13.23;8.07;;;4.30;99.90;;;;;;5024226;28;20040;-64
2021/12/12 10:28:35;;;;;;;16.10;7.30;;;4.40;99.90;;;;;;5031307;28;20037;-61
2021/12/12 10:31:19;;;;;;;14.13;7.30;;;4.50;99.90;;;;;;5030743;28;20037;-62
2021/12/12 10:34:11;;;;;;;16.60;7.15;;;4.40;99.90;;;;;;5032072;28;20037;-68
2021/12/12 10:36:45;;;;;;;10.98;6.15;;;4.20;99.90;;;;;;5030804;28;20104;-59
2021/12/12 10:39:20;;;;;;;12.20;6.93;;;4.40;99.90;;;;;;5030591;28;20037;-63
2021/12/12 10:41:59;;;;;;;11.20;6.38;;;4.30;99.90;;;;;;5032102;28;20029;-61
2021/12/12 10:44:28;;;;;;;15.77;6.95;;;4.40;99.90;;;;;;5032734;28;20036;-66
2021/12/12 10:47:15;;;;;;;11.80;7.30;;;4.20;99.90;;;;;;5029991;28;20030;-62
2021/12/12 10:50:11;;;;;;;12.50;6.85;;;4.10;99.90;;;;;;5031436;28;20363;-62
2021/12/12 10:53:03;;;;;;;15.88;8.50;;;4.10;99.90;;;;;;5031154;28;20045;-61
2021/12/12 10:55:38;;;;;;;13.52;7.50;;;4.00;99.90;;;;;;5024995;28;20088;-61
2021/12/12 10:58:11;;;;;;;12.52;7.28;;;4.20;99.90;;;;;;5017633;28;20100;-62
2021/12/12 11:00:43;;;;;;;14.00;8.15;;;4.30;99.90;;;;;;5030520;28;20033;-62
2021/12/12 11:03:28;;;;;;;13.05;6.57;;;4.40;99.90;;;;;;5030338;28;20060;-61
2021/12/12 11:06:04;;;;;;;14.13;7.32;;;4.30;99.90;;;;;;5027437;28;20494;-62
2021/12/12 11:08:34;;;;;;;17.85;8.07;;;4.30;99.90;;;;;;5028473;28;20113;-61
2021/12/12 11:11:01;;;;;;;15.38;7.43;;;4.40;99.90;;;;;;5030540;28;20029;-61
2021/12/12 11:13:40;;;;;;;14.68;6.53;;;4.30;99.90;;;;;;5035975;28;20026;-65
2021/12/12 11:16:17;;;;;;;13.55;7.18;;;4.30;99.90;;;;;;5023358;28;20037;-61
2021/12/12 11:18:54;;;;;;;12.05;7.00;;;4.20;99.90;;;;;;5010207;28;20440;-61
2021/12/12 11:21:26;;;;;;;17.17;8.00;;;4.40;99.90;;;;;;5029298;28;20029;-61
2021/12/12 11:24:06;;;;;;;12.45;7.45;;;4.40;99.90;;;;;;5031041;28;20060;-59
2021/12/12 11:26:40;;;;;;;17.80;7.78;;;4.50;99.90;;;;;;5028755;28;20120;-61
2021/12/12 11:29:19;;;;;;;15.85;7.15;;;4.50;99.90;;;;;;5028273;28;20083;-61
2021/12/12 11:32:10;;;;;;;27.60;8.27;;;4.50;99.90;;;;;;5013256;28;20448;-60
2021/12/12 11:34:41;;;;;;;18.80;9.18;;;6.20;99.90;;;;;;5029074;28;20132;-57
2021/12/12 11:37:22;;;;;;;11.38;6.90;;;6.80;99.90;;;;;;5029941;28;20045;-58
2021/12/12 11:39:58;;;;;;;8.37;5.93;;;7.20;99.90;;;;;;5028281;28;20084;-58
2021/12/12 11:42:48;;;;;;;12.13;6.55;;;7.50;99.90;;;;;;5027707;28;20353;-59
2021/12/12 11:45:38;;;;;;;11.88;6.38;;;7.50;99.90;;;;;;5024594;28;20030;-59
2021/12/12 11:48:15;;;;;;;12.50;7.03;;;7.30;99.90;;;;;;5029780;28;20037;-62
2021/12/12 11:50:46;;;;;;;14.60;6.68;;;7.10;99.90;;;;;;5031023;28;20022;-62
2021/12/12 11:53:20;;;;;;;11.98;6.57;;;7.10;99.90;;;;;;5041582;28;20018;-58
2021/12/12 11:55:52;;;;;;;12.48;7.05;;;7.10;99.90;;;;;;5016397;28;20522;-58
2021/12/12 11:58:24;;;;;;;9.57;6.28;;;6.70;99.90;;;;;;5027905;28;20032;-61
2021/12/12 12:01:01;;;;;;;9.75;6.22;;;6.10;99.90;;;;;;5028552;28;20128;-60
2021/12/12 12:03:53;;;;;;;11.90;6.30;;;5.80;99.90;;;;;;5029305;28;20040;-60
2021/12/12 12:07:01;;;;;;;13.98;6.40;;;5.40;99.90;;;;;;5029212;28;20034;-61
2021/12/12 12:09:29;;;;;;;12.57;6.45;;;5.30;99.90;;;;;;5025282;28;20439;-62
2021/12/12 12:12:26;;;;;;;11.48;6.85;;;5.10;99.90;;;;;;5022039;28;20040;-61
2021/12/12 12:15:04;;;;;;;10.85;6.70;;;5.10;99.90;;;;;;5029153;28;20037;-60
2021/12/12 12:17:48;;;;;;;13.75;7.43;;;4.90;99.90;;;;;;5028188;28;20095;-61
2021/12/12 12:20:36;;;;;;;23.02;7.38;;;5.00;99.90;;;;;;5027518;28;20120;-62
2021/12/12 12:23:41;;;;;;;14.38;7.85;;;5.00;99.90;;;;;;5011930;28;20092;-62
2021/12/12 12:29:02;;;;;;;15.55;7.07;;;5.10;99.90;;;;;;5030012;28;20485;-62
2021/12/12 12:31:34;;;;;;;14.18;7.00;;;5.20;99.90;;;;;;5030246;28;20137;-61
2021/12/12 12:34:18;;;;;;;13.15;6.65;;;5.20;99.90;;;;;;5047152;28;20033;-65
2021/12/12 12:37:21;;;;;;;12.70;6.20;;;5.10;99.90;;;;;;5024362;28;20362;-61
2021/12/12 12:40:09;;;;;;;14.73;7.18;;;5.10;99.90;;;;;;5033262;28;20390;-60
2021/12/12 12:43:12;;;;;;;12.27;6.45;;;5.10;99.90;;;;;;5033629;28;20130;-62
2021/12/12 12:46:15;;;;;;;10.95;6.13;;;5.00;99.90;;;;;;5033814;28;20506;-61
2021/12/12 12:49:18;;;;;;;13.48;6.95;;;5.10;99.90;;;;;;5034212;28;20079;-65
2021/12/12 12:52:16;;;;;;;11.68;5.65;;;5.20;99.90;;;;;;5033799;28;20376;-61
2021/12/12 12:55:26;;;;;;;10.80;6.47;;;5.20;99.90;;;;;;5011318;28;20380;-60
2021/12/12 12:57:55;;;;;;;13.52;6.55;;;5.10;99.90;;;;;;5031755;28;20087;-62
2021/12/12 13:00:23;;;;;;;13.60;5.70;;;5.10;99.90;;;;;;5030422;28;20485;-66
2021/12/12 13:03:16;;;;;;;14.48;7.03;;;5.20;99.90;;;;;;5029648;28;20038;-63
2021/12/12 13:05:51;;;;;;;;;;;5.20;99.90;;;;;;5024072;28;20072;-70
2021/12/12 13:08:54;;;;;;;12.10;6.63;;;5.10;99.90;;;;;;5028815;28;19929;-62
2021/12/12 13:11:37;;;;;;;11.70;6.07;;;5.10;99.90;;;;;;5030198;28;20129;-59
2021/12/12 13:14:21;;;;;;;17.67;7.50;;;5.10;99.90;;;;;;5017125;28;20117;-65
2021/12/12 13:17:17;;;;;;;12.50;6.13;;;5.10;99.90;;;;;;5025484;28;20051;-62
2021/12/12 13:19:57;;;;;;;15.10;6.60;;;5.00;99.90;;;;;;5024569;28;20143;-61
2021/12/12 13:22:51;;;;;;;11.10;6.28;;;5.10;99.90;;;;;;5028754;28;20356;-63
2021/12/12 13:25:26;;;;;;;12.63;7.00;;;5.10;99.90;;;;;;5028069;28;20029;-60
2021/12/12 13:28:09;;;;;;;14.90;6.90;;;5.10;99.90;;;;;;5016507;28;20030;-63
2021/12/12 13:31:16;;;;;;;11.60;7.95;;;5.10;99.90;;;;;;5032231;28;20091;-70
2021/12/12 13:34:10;;;;;;;14.27;6.43;;;5.20;99.90;;;;;;5008396;28;20152;-65
2021/12/12 13:37:06;;;;;;;12.27;6.10;;;5.20;99.90;;;;;;5031311;28;20053;-64
2021/12/12 13:39:49;;;;;;;11.25;5.88;;;5.10;99.90;;;;;;5033455;28;20029;-64
2021/12/12 13:42:45;;;;;;;11.23;6.25;;;5.20;99.90;;;;;;5015672;28;20428;-73
2021/12/12 13:45:31;;;;;;;15.10;6.68;;;5.20;99.90;;;;;;5018969;28;20026;-64
2021/12/12 13:48:23;;;;;;;10.57;6.25;;;5.20;99.90;;;;;;5027538;28;20030;-63
2021/12/12 13:51:08;;;;;;;15.55;6.05;;;5.30;99.90;;;;;;5031537;28;20021;-64